createdAt,value
2018-05-09T00:00:32.735Z,55.34
2018-05-09T00:01:32.753Z,55.63
2018-05-09T00:02:32.770Z,57.07
2018-05-09T00:03:32.791Z,56.11
2018-05-09T00:04:32.810Z,56.01
2018-05-09T00:05:32.828Z,55.82
2018-05-09T00:06:32.850Z,55.24
2018-05-09T00:07:32.866Z,55.73
2018-05-09T00:08:32.887Z,55.73
2018-05-09T00:09:32.904Z,56.01
2018-05-09T00:10:32.923Z,56.21
2018-05-09T00:11:32.940Z,56.85
2018-05-09T00:12:32.959Z,57.23
2018-05-09T00:13:32.976Z,56.56
2018-05-09T00:14:32.997Z,57.14
2018-05-09T00:15:33.018Z,57.23
2018-05-09T00:16:33.036Z,57.33
2018-05-09T00:17:33.051Z,56.56
2018-05-09T00:18:33.069Z,57.23
2018-05-09T00:19:33.090Z,58.39
2018-05-09T00:20:33.105Z,57.43
2018-05-09T00:21:33.126Z,57.04
2018-05-09T00:22:33.147Z,57.43
2018-05-09T00:23:33.169Z,58.39
2018-05-09T00:24:33.185Z,57.43
2018-05-09T00:25:33.195Z,57.90
2018-05-09T00:26:33.215Z,57.23
2018-05-09T00:27:33.232Z,58.48
2018-05-09T00:28:33.252Z,57.90
2018-05-09T00:29:33.269Z,58.39
2018-05-09T00:30:33.288Z,58.48
2018-05-09T00:31:33.305Z,58.39
2018-05-09T00:32:33.323Z,58.77
2018-05-09T00:33:33.344Z,59.06
2018-05-09T00:34:33.366Z,58.29
2018-05-09T00:35:33.381Z,58.77
2018-05-09T00:36:33.405Z,58.29
2018-05-09T00:37:33.420Z,57.52
2018-05-09T00:38:33.441Z,57.33
2018-05-09T00:39:33.459Z,58.39
2018-05-09T00:40:33.476Z,57.90
2018-05-09T00:41:33.490Z,57.62
2018-05-09T00:42:33.509Z,57.43
2018-05-09T00:43:33.526Z,58.58
2018-05-09T00:44:33.548Z,58.39
2018-05-09T00:45:33.568Z,58.29
2018-05-09T00:46:33.584Z,58.48
2018-05-09T00:47:33.601Z,58.74
2018-05-09T00:48:33.620Z,59.61
2018-05-09T00:49:33.638Z,60.66
2018-05-09T00:50:33.657Z,60.38
2018-05-09T00:51:33.676Z,60.47
2018-05-09T00:52:33.702Z,60.66
2018-05-09T00:53:33.734Z,59.89
2018-05-09T00:54:33.736Z,60.69
2018-05-09T00:55:33.759Z,60.11
2018-05-09T00:56:33.768Z,60.40
2018-05-09T00:57:33.786Z,60.69
2018-05-09T00:58:33.804Z,59.92
2018-05-09T00:59:33.823Z,60.60
2018-05-09T01:00:33.838Z,60.40
2018-05-09T01:01:33.862Z,60.66
2018-05-09T01:02:33.899Z,60.75
2018-05-09T01:03:33.897Z,60.60
2018-05-09T01:04:33.912Z,61.05
2018-05-09T01:05:33.933Z,60.75
2018-05-09T01:06:33.955Z,60.31
2018-05-09T01:07:33.975Z,60.21
2018-05-09T01:08:33.991Z,60.31
2018-05-09T01:09:34.005Z,59.80
2018-05-09T01:10:34.029Z,60.60
2018-05-09T01:11:34.043Z,60.21
2018-05-09T01:12:34.065Z,59.83
2018-05-09T01:13:34.081Z,59.16
2018-05-09T01:14:34.105Z,59.92
2018-05-09T01:15:34.120Z,59.73
2018-05-09T01:16:34.135Z,60.02
2018-05-09T01:17:34.153Z,60.69
2018-05-09T01:18:34.172Z,59.83
2018-05-09T01:19:34.188Z,59.54
2018-05-09T01:20:34.212Z,59.64
2018-05-09T01:21:34.229Z,60.40
2018-05-09T01:22:34.245Z,60.11
2018-05-09T01:23:34.265Z,60.18
2018-05-09T01:24:34.282Z,60.31
2018-05-09T01:25:34.299Z,60.57
2018-05-09T01:26:34.338Z,61.05
2018-05-09T01:27:34.335Z,60.66
2018-05-09T01:28:34.358Z,60.11
2018-05-09T01:29:34.372Z,60.66
2018-05-09T01:30:34.389Z,60.47
2018-05-09T01:31:34.411Z,60.75
2018-05-09T01:32:34.427Z,61.62
2018-05-09T01:33:34.446Z,61.05
2018-05-09T01:34:34.463Z,61.33
2018-05-09T01:35:34.480Z,61.33
2018-05-09T01:36:34.502Z,61.24
2018-05-09T01:37:34.517Z,61.62
2018-05-09T01:38:34.541Z,61.24
2018-05-09T01:39:34.554Z,61.24
2018-05-09T01:40:34.573Z,62.01
2018-05-09T01:41:34.593Z,62.58
2018-05-09T01:42:34.609Z,61.72
2018-05-09T01:43:34.626Z,62.29
2018-05-09T01:44:34.645Z,61.24
2018-05-09T01:45:34.663Z,61.62
2018-05-09T01:46:34.681Z,61.98
2018-05-09T01:47:34.699Z,62.55
2018-05-09T01:48:34.720Z,62.26
2018-05-09T01:49:34.843Z,62.26
2018-05-09T01:50:34.757Z,63.22
2018-05-09T01:51:34.772Z,62.84
2018-05-09T01:52:34.792Z,62.55
2018-05-09T01:53:34.811Z,62.93
2018-05-09T01:54:34.833Z,63.79
2018-05-09T01:55:34.848Z,62.74
2018-05-09T01:56:34.864Z,62.65
2018-05-09T01:57:34.886Z,62.45
2018-05-09T01:58:34.902Z,62.55
2018-05-09T01:59:34.918Z,63.22
2018-05-09T02:00:34.938Z,63.42
2018-05-09T02:01:34.959Z,62.65
2018-05-09T02:02:34.974Z,63.79
2018-05-09T02:03:34.989Z,63.32
2018-05-09T02:04:35.012Z,64.18
2018-05-09T02:05:35.027Z,63.51
2018-05-09T02:06:35.046Z,63.70
2018-05-09T02:07:35.062Z,63.89
2018-05-09T02:08:35.087Z,63.79
2018-05-09T02:09:35.103Z,63.38
2018-05-09T02:10:35.131Z,63.96
2018-05-09T02:11:35.137Z,64.82
2018-05-09T02:12:35.153Z,64.63
2018-05-09T02:13:35.170Z,64.72
2018-05-09T02:14:35.189Z,64.43
2018-05-09T02:15:35.208Z,64.82
2018-05-09T02:16:35.227Z,65.59
2018-05-09T02:17:35.279Z,65.68
2018-05-09T02:18:35.262Z,65.68
2018-05-09T02:19:35.278Z,65.49
2018-05-09T02:20:35.297Z,65.68
2018-05-09T02:21:35.317Z,65.59
2018-05-09T02:22:35.335Z,65.11
2018-05-09T02:23:35.350Z,65.68
2018-05-09T02:24:35.368Z,66.64
2018-05-09T02:25:35.392Z,66.74
2018-05-09T02:26:35.409Z,66.06
2018-05-09T02:27:35.424Z,66.64
2018-05-09T02:28:35.440Z,66.35
2018-05-09T02:29:35.463Z,66.93
2018-05-09T02:30:35.476Z,66.83
2018-05-09T02:31:35.492Z,67.09
2018-05-09T02:32:35.517Z,67.47
2018-05-09T02:33:35.542Z,66.71
2018-05-09T02:34:35.551Z,66.45
2018-05-09T02:35:35.566Z,66.35
2018-05-09T02:36:35.582Z,66.26
2018-05-09T02:37:35.601Z,66.32
2018-05-09T02:38:35.619Z,67.76
2018-05-09T02:39:35.640Z,68.33
2018-05-09T02:40:35.669Z,67.60
2018-05-09T02:41:35.677Z,66.89
2018-05-09T02:42:35.692Z,67.12
2018-05-09T02:43:35.802Z,67.69
2018-05-09T02:44:35.729Z,67.79
2018-05-09T02:45:35.743Z,66.83
2018-05-09T02:46:35.764Z,66.83
2018-05-09T02:47:35.780Z,67.69
2018-05-09T02:48:35.799Z,66.74
2018-05-09T02:49:35.819Z,66.93
2018-05-09T02:50:35.835Z,66.64
2018-05-09T02:51:35.849Z,66.74
2018-05-09T02:52:35.868Z,66.06
2018-05-09T02:53:35.898Z,66.64
2018-05-09T02:54:35.910Z,66.74
2018-05-09T02:55:35.927Z,66.93
2018-05-09T02:56:35.946Z,67.22
2018-05-09T02:57:35.959Z,67.12
2018-05-09T02:58:35.976Z,68.18
2018-05-09T02:59:35.995Z,68.08
2018-05-09T03:00:36.012Z,68.37
2018-05-09T03:01:36.031Z,67.79
2018-05-09T03:02:36.049Z,67.79
2018-05-09T03:03:36.065Z,67.89
2018-05-09T03:04:36.081Z,68.14
2018-05-09T03:05:36.099Z,68.72
2018-05-09T03:06:36.122Z,69.04
2018-05-09T03:07:36.135Z,68.14
2018-05-09T03:08:36.154Z,67.85
2018-05-09T03:09:36.170Z,68.33
2018-05-09T03:10:36.192Z,67.76
2018-05-09T03:11:36.206Z,69.10
2018-05-09T03:12:36.219Z,68.91
2018-05-09T03:13:36.238Z,68.62
2018-05-09T03:14:36.254Z,67.95
2018-05-09T03:15:36.272Z,67.85
2018-05-09T03:16:36.292Z,67.85
2018-05-09T03:17:36.312Z,68.08
2018-05-09T03:18:36.330Z,69.01
2018-05-09T03:19:36.349Z,68.62
2018-05-09T03:20:36.362Z,67.95
2018-05-09T03:21:36.380Z,68.14
2018-05-09T03:22:36.403Z,67.95
2018-05-09T03:23:36.415Z,68.33
2018-05-09T03:24:36.432Z,67.57
2018-05-09T03:25:36.451Z,67.66
2018-05-09T03:26:36.470Z,67.76
2018-05-09T03:27:36.485Z,68.52
2018-05-09T03:28:36.503Z,68.91
2018-05-09T03:29:36.521Z,68.24
2018-05-09T03:30:36.543Z,68.24
2018-05-09T03:31:36.569Z,69.20
2018-05-09T03:32:36.578Z,67.95
2018-05-09T03:33:36.595Z,67.76
2018-05-09T03:34:36.610Z,68.24
2018-05-09T03:35:36.631Z,67.76
2018-05-09T03:36:36.644Z,68.33
2018-05-09T03:37:36.663Z,68.14
2018-05-09T03:38:36.682Z,68.14
2018-05-09T03:39:36.706Z,68.62
2018-05-09T03:40:36.716Z,69.39
2018-05-09T03:41:36.733Z,69.68
2018-05-09T03:42:36.755Z,69.77
2018-05-09T03:43:36.772Z,69.10
2018-05-09T03:44:36.789Z,69.87
2018-05-09T03:45:36.810Z,70.06
2018-05-09T03:46:36.821Z,69.39
2018-05-09T03:47:36.838Z,69.77
2018-05-09T03:48:36.864Z,69.68
2018-05-09T03:49:36.879Z,69.20
2018-05-09T03:50:36.894Z,69.39
2018-05-09T03:51:36.912Z,69.48
2018-05-09T03:52:36.929Z,69.68
2018-05-09T03:53:36.948Z,69.01
2018-05-09T03:54:36.964Z,69.29
2018-05-09T03:55:36.984Z,69.77
2018-05-09T03:56:36.999Z,69.29
2018-05-09T03:57:37.018Z,69.39
2018-05-09T03:58:37.035Z,68.91
2018-05-09T03:59:37.050Z,69.48
2018-05-09T04:00:37.068Z,69.96
2018-05-09T04:01:37.087Z,69.29
2018-05-09T04:02:37.105Z,69.87
2018-05-09T04:03:37.144Z,70.35
2018-05-09T04:04:37.140Z,69.77
2018-05-09T04:06:37.176Z,70.73
2018-05-09T04:07:37.192Z,69.77
2018-05-09T04:08:37.219Z,70.06
2018-05-09T04:09:37.291Z,69.74
2018-05-09T04:10:37.250Z,70.31
2018-05-09T04:11:37.264Z,71.27
2018-05-09T04:12:37.285Z,71.08
2018-05-09T04:13:37.300Z,70.31
2018-05-09T04:14:37.317Z,70.98
2018-05-09T04:15:37.335Z,72.13
2018-05-09T04:16:37.350Z,71.84
2018-05-09T04:17:37.370Z,71.66
2018-05-09T04:18:37.427Z,70.89
2018-05-09T04:19:37.404Z,71.08
2018-05-09T04:20:37.447Z,70.79
2018-05-09T04:21:37.439Z,72.03
2018-05-09T04:22:37.458Z,71.56
2018-05-09T04:23:37.486Z,70.89
2018-05-09T04:24:37.519Z,71.37
2018-05-09T04:25:37.510Z,71.17
2018-05-09T04:26:37.526Z,72.03
2018-05-09T04:27:37.573Z,73.28
2018-05-09T04:28:37.565Z,72.71
2018-05-09T04:29:37.582Z,72.03
2018-05-09T04:30:37.599Z,71.88
2018-05-09T04:31:37.625Z,71.78
2018-05-09T04:32:37.632Z,70.83
2018-05-09T04:33:37.651Z,71.69
2018-05-09T04:34:39.011Z,70.73
2018-05-09T04:35:37.685Z,70.06
2018-05-09T04:37:38.549Z,69.96
2018-05-09T04:38:37.738Z,69.77
2018-05-09T04:39:37.758Z,70.15
2018-05-09T04:40:37.775Z,69.48
2018-05-09T04:41:37.797Z,70.25
2018-05-09T04:42:37.817Z,70.25
2018-05-09T04:43:37.837Z,70.92
2018-05-09T04:44:37.844Z,69.77
2018-05-09T04:45:37.865Z,70.06
2018-05-09T04:46:37.883Z,69.58
2018-05-09T04:47:37.897Z,70.06
2018-05-09T04:48:37.915Z,69.68
2018-05-09T04:49:37.936Z,69.96
2018-05-09T04:50:37.951Z,69.68
2018-05-09T04:51:37.979Z,69.87
2018-05-09T04:52:37.985Z,69.48
2018-05-09T04:53:38.002Z,70.06
2018-05-09T04:54:38.026Z,70.35
2018-05-09T04:55:38.111Z,70.64
2018-05-09T04:56:38.065Z,70.06
2018-05-09T04:57:38.072Z,70.35
2018-05-09T04:58:38.091Z,70.35
2018-05-09T04:59:38.107Z,71.02
2018-05-09T05:00:38.129Z,70.92
2018-05-09T05:01:38.149Z,71.11
2018-05-09T05:02:38.166Z,70.44
2018-05-09T05:03:38.178Z,70.73
2018-05-09T05:04:38.200Z,70.44
2018-05-09T05:05:38.214Z,71.11
2018-05-09T05:06:38.231Z,71.78
2018-05-09T05:07:38.247Z,71.21
2018-05-09T05:08:38.264Z,71.08
2018-05-09T05:09:38.286Z,71.78
2018-05-09T05:10:38.303Z,71.98
2018-05-09T05:11:38.327Z,71.02
2018-05-09T05:12:38.340Z,71.11
2018-05-09T05:13:38.360Z,70.44
2018-05-09T05:14:38.372Z,70.73
2018-05-09T05:15:38.431Z,70.73
2018-05-09T05:16:38.410Z,70.92
2018-05-09T05:17:38.465Z,70.54
2018-05-09T05:18:38.444Z,70.35
2018-05-09T05:19:38.462Z,70.44
2018-05-09T05:20:38.480Z,70.06
2018-05-09T05:21:38.498Z,70.25
2018-05-09T05:22:38.516Z,70.00
2018-05-09T05:23:38.529Z,69.62
2018-05-09T05:24:38.546Z,69.77
2018-05-09T05:25:38.567Z,69.96
2018-05-09T05:26:38.582Z,69.62
2018-05-09T05:27:38.599Z,70.19
2018-05-09T05:28:38.616Z,69.71
2018-05-09T05:29:38.635Z,68.95
2018-05-09T05:30:38.652Z,69.04
2018-05-09T05:31:38.671Z,68.95
2018-05-09T05:32:38.691Z,68.95
2018-05-09T05:33:38.705Z,69.81
2018-05-09T05:34:38.727Z,69.33
2018-05-09T05:35:38.744Z,68.56
2018-05-09T05:36:38.768Z,68.66
2018-05-09T05:37:38.777Z,68.79
2018-05-09T05:38:38.795Z,68.40
2018-05-09T05:39:38.823Z,68.02
2018-05-09T05:40:38.831Z,68.02
2018-05-09T05:41:38.849Z,68.21
2018-05-09T05:42:38.870Z,68.50
2018-05-09T05:43:38.886Z,68.30
2018-05-09T05:44:38.901Z,67.73
2018-05-09T05:45:38.918Z,67.83
2018-05-09T05:46:38.936Z,67.44
2018-05-09T05:47:38.958Z,67.92
2018-05-09T05:48:38.976Z,67.06
2018-05-09T05:49:38.989Z,67.73
2018-05-09T05:50:39.009Z,67.57
2018-05-09T05:51:39.032Z,67.00
2018-05-09T05:52:39.040Z,68.12
2018-05-09T05:53:39.061Z,67.96
2018-05-09T05:54:39.081Z,68.34
2018-05-09T05:55:39.097Z,68.15
2018-05-09T05:56:39.114Z,67.29
2018-05-09T05:57:39.133Z,68.05
2018-05-09T05:58:39.150Z,67.86
2018-05-09T05:59:39.172Z,67.00
2018-05-09T06:00:39.184Z,67.19
2018-05-09T06:01:39.198Z,66.42
2018-05-09T06:02:39.221Z,66.13
2018-05-09T06:03:39.234Z,66.71
2018-05-09T06:04:39.272Z,66.52
2018-05-09T06:05:39.281Z,66.03
2018-05-09T06:06:39.287Z,65.94
2018-05-09T06:07:39.699Z,67.19
2018-05-09T06:08:39.326Z,66.84
2018-05-09T06:09:39.342Z,66.36
2018-05-09T06:10:39.365Z,65.59
2018-05-09T06:11:39.379Z,66.07
2018-05-09T06:12:39.397Z,65.78
2018-05-09T06:13:39.416Z,65.69
2018-05-09T06:14:39.437Z,65.78
2018-05-09T06:15:39.451Z,65.40
2018-05-09T06:16:39.469Z,65.40
2018-05-09T06:17:39.486Z,65.49
2018-05-09T06:18:39.508Z,65.78
2018-05-09T06:19:39.522Z,65.53
2018-05-09T06:20:39.543Z,65.53
2018-05-09T06:21:39.559Z,64.76
2018-05-09T06:22:39.578Z,64.76
2018-05-09T06:23:39.603Z,64.95
2018-05-09T06:24:39.613Z,64.66
2018-05-09T06:25:39.636Z,64.09
2018-05-09T06:26:39.650Z,64.56
2018-05-09T06:27:39.671Z,65.33
2018-05-09T06:28:39.686Z,65.23
2018-05-09T06:29:39.714Z,65.23
2018-05-09T06:30:39.723Z,65.62
2018-05-09T06:31:39.740Z,65.91
2018-05-09T06:32:39.757Z,65.14
2018-05-09T06:33:39.778Z,64.56
2018-05-09T06:34:39.801Z,64.12
2018-05-09T06:35:39.815Z,63.83
2018-05-09T06:36:39.836Z,64.69
2018-05-09T06:37:39.936Z,65.37
2018-05-09T06:38:39.895Z,64.89
2018-05-09T06:39:39.887Z,64.22
2018-05-09T06:40:39.905Z,62.96
2018-05-09T06:41:40.021Z,63.64
2018-05-09T06:42:39.944Z,63.15
2018-05-09T06:43:39.997Z,63.35
2018-05-09T06:44:39.978Z,63.57
2018-05-09T06:45:39.998Z,63.28
2018-05-09T06:46:40.018Z,62.68
2018-05-09T06:47:40.032Z,62.90
2018-05-09T06:48:40.052Z,62.51
2018-05-09T06:49:40.074Z,62.61
2018-05-09T06:50:40.091Z,63.18
2018-05-09T06:51:43.451Z,62.80
2018-05-09T06:52:41.728Z,62.41
2018-05-09T06:53:41.670Z,62.32
2018-05-09T06:54:41.060Z,62.61
2018-05-09T06:55:43.576Z,62.03
2018-05-09T06:57:41.266Z,61.94
2018-05-09T06:58:44.103Z,62.03
2018-05-09T06:59:44.041Z,61.29
2018-05-09T07:00:42.317Z,61.87
2018-05-09T07:02:42.601Z,61.39
2018-05-09T07:03:42.235Z,61.68
2018-05-09T07:04:42.614Z,61.39
2018-05-09T07:05:42.836Z,61.49
2018-05-09T07:06:42.916Z,61.19
2018-05-09T07:07:42.992Z,60.81
2018-05-09T07:08:42.886Z,60.62
2018-05-09T07:09:43.533Z,60.65
2018-05-09T07:10:42.535Z,60.75
2018-05-09T07:11:42.668Z,60.46
2018-05-09T07:12:43.141Z,60.17
2018-05-09T07:13:43.199Z,60.55
2018-05-09T07:14:42.823Z,59.97
2018-05-09T07:15:42.758Z,60.07
2018-05-09T07:16:42.425Z,59.97
2018-05-09T07:17:43.062Z,59.78
2018-05-09T07:18:43.632Z,59.30
2018-05-09T07:20:41.325Z,60.00
2018-05-09T07:21:40.712Z,59.52
2018-05-09T07:22:43.604Z,58.65
2018-05-09T07:24:42.707Z,58.47
2018-05-09T07:25:43.079Z,58.56
2018-05-09T07:26:44.056Z,58.27
2018-05-09T07:27:42.258Z,58.08
2018-05-09T07:28:41.561Z,57.79
2018-05-09T07:29:40.834Z,57.79
2018-05-09T07:30:40.986Z,57.69
2018-05-09T07:31:43.053Z,56.57
2018-05-09T07:32:42.712Z,56.63
2018-05-09T07:33:42.764Z,55.99
2018-05-09T07:34:43.057Z,56.85
2018-05-09T07:35:40.941Z,57.24
2018-05-09T07:36:40.947Z,57.43
2018-05-09T07:37:41.148Z,57.53
2018-05-09T07:38:41.219Z,56.85
2018-05-09T07:39:41.116Z,57.24
2018-05-09T07:40:41.260Z,57.43
2018-05-09T07:41:41.045Z,57.05
2018-05-09T07:42:41.063Z,57.14
2018-05-09T07:43:41.092Z,56.59
2018-05-09T07:44:41.103Z,55.92
2018-05-09T07:46:41.760Z,56.21
2018-05-09T07:47:42.022Z,56.01
2018-05-09T07:48:41.771Z,55.92
2018-05-09T07:50:41.223Z,56.30
2018-05-09T07:51:41.235Z,56.11
2018-05-09T07:52:41.959Z,56.11
2018-05-09T07:53:41.273Z,56.69
2018-05-09T07:54:41.294Z,55.92
2018-05-09T07:55:41.316Z,56.21
2018-05-09T07:56:41.332Z,55.92
2018-05-09T07:57:41.354Z,55.34
2018-05-09T07:58:41.371Z,55.73
2018-05-09T07:59:41.559Z,54.86
2018-05-09T08:00:41.409Z,54.38
2018-05-09T08:01:41.434Z,54.76
2018-05-09T08:02:41.454Z,55.08
2018-05-09T08:03:41.468Z,54.88
2018-05-09T08:04:41.492Z,54.98
2018-05-09T08:05:41.506Z,54.79
2018-05-09T08:06:41.528Z,54.79
2018-05-09T08:07:41.547Z,54.79
2018-05-09T08:08:41.576Z,54.88
2018-05-09T08:09:41.608Z,54.60
2018-05-09T08:10:41.604Z,54.98
2018-05-09T08:11:41.622Z,54.88
2018-05-09T08:12:41.643Z,54.79
2018-05-09T08:13:41.663Z,54.88
2018-05-09T08:14:41.683Z,54.88
2018-05-09T08:15:41.704Z,55.08
2018-05-09T08:16:41.730Z,55.01
2018-05-09T08:17:41.742Z,54.24
2018-05-09T08:18:41.759Z,53.85
2018-05-09T08:19:41.791Z,53.85
2018-05-09T08:20:41.799Z,54.24
2018-05-09T08:21:41.823Z,54.24
2018-05-09T08:22:41.845Z,54.82
2018-05-09T08:23:41.862Z,54.72
2018-05-09T08:24:41.881Z,54.43
2018-05-09T08:25:41.897Z,54.33
2018-05-09T08:26:41.919Z,55.10
2018-05-09T08:27:41.948Z,54.24
2018-05-09T08:28:41.958Z,54.65
2018-05-09T08:29:41.978Z,53.97
2018-05-09T08:30:41.997Z,53.37
2018-05-09T08:31:42.015Z,54.27
2018-05-09T08:32:42.038Z,52.91
2018-05-09T08:33:42.063Z,53.49
2018-05-09T08:34:42.078Z,53.49
2018-05-09T08:35:42.097Z,51.46
2018-05-09T08:36:42.133Z,51.46
2018-05-09T08:37:42.141Z,50.98
2018-05-09T08:38:42.158Z,52.55
2018-05-09T08:39:42.193Z,52.75
2018-05-09T08:40:42.196Z,52.36
2018-05-09T08:41:42.214Z,52.84
2018-05-09T08:42:42.238Z,52.75
2018-05-09T08:43:42.342Z,52.75
2018-05-09T08:44:43.070Z,52.07
2018-05-09T08:45:42.297Z,51.59
2018-05-09T08:46:42.318Z,51.68
2018-05-09T08:47:42.388Z,51.49
2018-05-09T08:48:42.370Z,50.71
2018-05-09T08:49:42.829Z,50.81
2018-05-09T08:50:42.396Z,50.62
2018-05-09T08:51:42.438Z,51.39
2018-05-09T08:52:42.435Z,51.10
2018-05-09T08:53:42.457Z,51.49
2018-05-09T08:54:42.480Z,51.39
2018-05-09T08:55:42.495Z,50.52
2018-05-09T08:56:42.518Z,50.43
2018-05-09T08:57:42.549Z,50.45
2018-05-09T08:58:42.555Z,50.16
2018-05-09T08:59:42.580Z,50.26
2018-05-09T09:00:42.598Z,49.68
2018-05-09T09:01:42.616Z,49.97
2018-05-09T09:02:42.637Z,49.97
2018-05-09T09:03:42.658Z,49.10
2018-05-09T09:04:42.684Z,49.49
2018-05-09T09:05:42.696Z,49.68
2018-05-09T09:06:42.734Z,50.09
2018-05-09T09:07:42.737Z,49.32
2018-05-09T09:08:42.757Z,49.22
2018-05-09T09:09:42.784Z,49.12
2018-05-09T09:10:42.797Z,49.12
2018-05-09T09:11:42.830Z,49.22
2018-05-09T09:12:42.833Z,47.19
2018-05-09T09:13:42.855Z,48.08
2018-05-09T09:14:42.875Z,47.50
2018-05-09T09:15:42.938Z,48.37
2018-05-09T09:16:42.917Z,48.08
2018-05-09T09:17:42.937Z,47.09
2018-05-09T09:18:43.120Z,46.05
2018-05-09T09:19:42.977Z,46.34
2018-05-09T09:20:42.997Z,47.21
2018-05-09T09:21:43.018Z,48.08
2018-05-09T09:22:43.037Z,47.41
2018-05-09T09:23:43.058Z,46.92
2018-05-09T09:24:43.286Z,46.53
2018-05-09T09:25:43.102Z,47.21
2018-05-09T09:26:43.124Z,46.73
2018-05-09T09:27:43.141Z,46.66
2018-05-09T09:28:43.161Z,45.40
2018-05-09T09:29:43.181Z,44.91
2018-05-09T09:30:43.207Z,44.91
2018-05-09T09:31:43.224Z,45.20
2018-05-09T09:32:43.250Z,45.01
2018-05-09T09:33:43.286Z,46.08
2018-05-09T09:34:43.289Z,45.30
2018-05-09T09:35:43.305Z,44.62
2018-05-09T09:36:43.325Z,43.95
2018-05-09T09:37:43.350Z,44.72
2018-05-09T09:38:43.371Z,43.77
2018-05-09T09:39:43.391Z,42.41
2018-05-09T09:40:43.418Z,42.03
2018-05-09T09:41:43.560Z,42.22
2018-05-09T09:42:43.455Z,42.14
2018-05-09T09:43:43.469Z,41.66
2018-05-09T09:44:43.504Z,40.79
2018-05-09T09:45:43.513Z,40.01
2018-05-09T09:46:44.115Z,40.79
2018-05-09T09:47:43.554Z,41.30
2018-05-09T09:48:43.576Z,40.03
2018-05-09T09:49:43.599Z,40.40
2018-05-09T09:50:43.663Z,39.62
2018-05-09T09:51:44.982Z,40.11
2018-05-09T09:52:43.665Z,40.40
2018-05-09T09:53:43.684Z,40.01
2018-05-09T09:54:43.783Z,40.71
2018-05-09T09:55:44.288Z,40.89
2018-05-09T09:56:43.744Z,40.69
2018-05-09T09:57:43.873Z,41.00
2018-05-09T09:58:43.799Z,41.10
2018-05-09T09:59:43.808Z,41.00
2018-05-09T10:00:43.826Z,40.71
2018-05-09T10:01:43.849Z,40.33
2018-05-09T10:02:43.872Z,40.33
2018-05-09T10:03:43.892Z,40.13
2018-05-09T10:04:46.463Z,39.84
2018-05-09T10:05:43.942Z,39.74
2018-05-09T10:06:43.961Z,39.45
2018-05-09T10:07:43.974Z,38.40
2018-05-09T10:08:43.997Z,37.24
2018-05-09T10:09:44.017Z,38.31
2018-05-09T10:10:44.065Z,38.89
2018-05-09T10:11:44.326Z,39.18
2018-05-09T10:12:44.300Z,38.99
2018-05-09T10:13:44.104Z,38.12
2018-05-09T10:14:44.120Z,36.36
2018-05-09T10:15:44.151Z,35.90
2018-05-09T10:16:44.174Z,36.58
2018-05-09T10:17:44.186Z,36.36
2018-05-09T10:18:44.223Z,37.05
2018-05-09T10:19:44.233Z,37.05
2018-05-09T10:20:44.256Z,36.58
2018-05-09T10:21:45.098Z,35.61
2018-05-09T10:22:44.299Z,32.79
2018-05-09T10:23:44.316Z,32.99
2018-05-09T10:24:44.336Z,33.28
2018-05-09T10:25:44.362Z,32.31
2018-05-09T10:26:44.379Z,32.39
2018-05-09T10:27:44.673Z,32.59
2018-05-09T10:28:45.461Z,32.89
2018-05-09T10:29:44.441Z,33.86
2018-05-09T10:30:44.464Z,33.09
2018-05-09T10:31:44.488Z,33.18
2018-05-09T10:32:44.526Z,33.38
2018-05-09T10:33:44.537Z,33.28
2018-05-09T10:34:44.563Z,33.96
2018-05-09T10:35:44.568Z,33.96
2018-05-09T10:36:44.592Z,34.54
2018-05-09T10:37:44.610Z,35.90
2018-05-09T10:38:44.729Z,36.38
2018-05-09T10:39:44.684Z,36.10
2018-05-09T10:40:44.676Z,36.38
2018-05-09T10:41:44.697Z,36.58
2018-05-09T10:42:44.721Z,36.38
2018-05-09T10:43:44.743Z,36.30
2018-05-09T10:44:44.761Z,36.50
2018-05-09T10:45:44.788Z,36.30
2018-05-09T10:46:44.803Z,36.21
2018-05-09T10:47:44.824Z,36.40
2018-05-09T10:48:44.849Z,36.99
2018-05-09T10:49:44.867Z,37.28
2018-05-09T10:50:44.914Z,37.49
2018-05-09T10:51:44.912Z,36.40
2018-05-09T10:52:44.940Z,36.69
2018-05-09T10:53:44.959Z,36.11
2018-05-09T10:54:45.005Z,36.99
2018-05-09T10:55:45.000Z,36.50
2018-05-09T10:56:45.019Z,36.40
2018-05-09T10:57:45.040Z,36.21
2018-05-09T10:58:45.066Z,35.43
2018-05-09T10:59:45.085Z,34.85
2018-05-09T11:00:45.127Z,34.85
2018-05-09T11:01:45.130Z,34.56
2018-05-09T11:02:45.156Z,34.85
2018-05-09T11:03:45.173Z,33.49
2018-05-09T11:04:45.590Z,34.19
2018-05-09T11:05:45.231Z,34.75
2018-05-09T11:06:45.252Z,35.24
2018-05-09T11:07:45.596Z,36.11
2018-05-09T11:08:45.278Z,35.05
2018-05-09T11:09:45.306Z,35.53
2018-05-09T11:10:45.338Z,35.53
2018-05-09T11:11:45.348Z,36.11
2018-05-09T11:12:45.376Z,37.28
2018-05-09T11:13:45.390Z,36.60
2018-05-09T11:14:45.413Z,35.45
2018-05-09T11:15:45.432Z,35.35
2018-05-09T11:16:45.453Z,35.64
2018-05-09T11:17:45.475Z,34.58
2018-05-09T11:18:45.522Z,34.09
2018-05-09T11:19:45.525Z,33.90
2018-05-09T11:20:45.570Z,34.01
2018-05-09T11:21:45.566Z,35.16
2018-05-09T11:22:45.606Z,34.58
2018-05-09T11:23:45.607Z,35.16
2018-05-09T11:24:45.654Z,34.48
2018-05-09T11:25:45.651Z,34.97
2018-05-09T11:26:45.675Z,35.35
2018-05-09T11:27:45.693Z,35.55
2018-05-09T11:28:45.719Z,34.28
2018-05-09T11:29:45.741Z,33.91
2018-05-09T11:30:45.773Z,34.50
2018-05-09T11:31:45.787Z,34.40
2018-05-09T11:32:45.804Z,33.90
2018-05-09T11:33:45.824Z,34.77
2018-05-09T11:34:45.909Z,34.01
2018-05-09T11:35:45.880Z,33.12
2018-05-09T11:36:45.890Z,32.84
2018-05-09T11:37:45.912Z,33.90
2018-05-09T11:38:45.935Z,33.99
2018-05-09T11:39:45.958Z,33.33
2018-05-09T11:40:45.978Z,33.90
2018-05-09T11:41:46.003Z,33.33
2018-05-09T11:42:46.024Z,33.61
2018-05-09T11:43:46.045Z,33.99
2018-05-09T11:44:46.143Z,34.30
2018-05-09T11:45:46.108Z,35.86
2018-05-09T11:46:46.115Z,34.40
2018-05-09T11:47:46.134Z,33.14
2018-05-09T11:48:46.154Z,33.14
2018-05-09T11:49:46.195Z,33.14
2018-05-09T11:50:46.204Z,32.84
2018-05-09T11:51:46.224Z,33.53
2018-05-09T11:52:46.269Z,32.65
2018-05-09T11:53:46.265Z,32.07
2018-05-09T11:54:46.300Z,33.14
2018-05-09T11:55:46.501Z,32.84
2018-05-09T11:56:46.333Z,33.14
2018-05-09T11:57:46.672Z,33.33
2018-05-09T11:58:46.377Z,33.04
2018-05-09T11:59:46.406Z,33.83
2018-05-09T12:00:46.421Z,33.15
2018-05-09T12:02:46.476Z,32.84
2018-05-09T12:03:46.649Z,34.22
2018-05-09T12:04:46.736Z,33.15
2018-05-09T12:05:46.543Z,34.03
2018-05-09T12:06:47.266Z,31.88
2018-05-09T12:07:47.257Z,31.90
2018-05-09T12:08:47.263Z,31.51
2018-05-09T12:09:46.622Z,30.85
2018-05-09T12:10:46.756Z,31.34
2018-05-09T12:11:46.669Z,32.02
2018-05-09T12:12:46.688Z,32.02
2018-05-09T12:13:46.755Z,31.14
2018-05-09T12:14:46.747Z,30.85
2018-05-09T12:15:46.829Z,31.73
2018-05-09T12:16:46.787Z,31.73
2018-05-09T12:17:46.801Z,31.04
2018-05-09T12:18:46.828Z,30.85
2018-05-09T12:19:46.847Z,31.04
2018-05-09T12:20:46.867Z,30.26
2018-05-09T12:21:46.892Z,31.14
2018-05-09T12:22:46.947Z,30.26
2018-05-09T12:23:46.938Z,32.79
2018-05-09T12:24:46.963Z,30.85
2018-05-09T12:25:47.325Z,30.85
2018-05-09T12:26:47.260Z,31.16
2018-05-09T12:27:47.027Z,31.74
2018-05-09T12:28:47.052Z,31.45
2018-05-09T12:29:47.090Z,29.99
2018-05-09T12:30:47.097Z,30.47
2018-05-09T12:31:47.118Z,31.27
2018-05-09T12:32:47.144Z,29.52
2018-05-09T12:33:47.167Z,30.39
2018-05-09T12:34:47.191Z,29.71
2018-05-09T12:35:47.218Z,29.32
2018-05-09T12:36:47.250Z,31.17
2018-05-09T12:37:47.256Z,29.43
2018-05-09T12:38:47.284Z,31.28
2018-05-09T12:39:47.309Z,28.34
2018-05-09T12:40:47.324Z,31.66
2018-05-09T12:41:47.348Z,32.05
2018-05-09T12:42:47.374Z,30.19
2018-05-09T12:43:47.398Z,30.29
2018-05-09T12:44:47.426Z,28.83
2018-05-09T12:45:47.439Z,30.02
2018-05-09T12:46:47.463Z,31.09
2018-05-09T12:47:47.486Z,28.85
2018-05-09T12:48:47.639Z,29.93
2018-05-09T12:49:47.537Z,29.72
2018-05-09T12:50:47.557Z,29.24
2018-05-09T12:51:47.581Z,29.92
2018-05-09T12:52:47.602Z,29.61
2018-05-09T12:53:47.632Z,30.90
2018-05-09T12:54:47.653Z,31.19
2018-05-09T12:55:48.051Z,28.75
2018-05-09T12:56:47.700Z,30.02
2018-05-09T12:57:47.725Z,31.19
2018-05-09T12:58:47.754Z,29.04
2018-05-09T12:59:47.776Z,28.15
2018-05-09T13:00:47.815Z,29.71
2018-05-09T13:01:47.839Z,28.33